Airfield :
LOGIN :

Register | Disclaimer

   EN    FR    IT 

 










Legend :    VFR   Marginal VFR   IFR   Intensive IFR   Very Intensive IFR
Visi :
Ceiling :
>= 8 km
>= 3000ft
5 to 8 km
1000 to 3000 ft
1500m to 5 km
500 to 1000 ft
800 to 1500m
200 to 500 ft
< 800m
< 200 ft
Symbols :   Thunderstorms  Fog  Heavy snow  Heavy precipitations  Wind > 20 kt
SIGMETs :     Misc.  Thunderstorms  Icing  Turbulence  Mountain Waves  Volcanic Ashes






- Airport Elevation : 20 ft
- IATA code : DLM


LTBS - Dalaman

CURRENT METAR :
  • 021240Z 21005KT 130V260 8000 -SHRA SCT020 BKN080 14/12 Q1010 RESHRA NOSIG RMK RWY19 18007KT 120V220

EXPIRED METARs :
  • 021220Z 17010KT 130V190 4000 SHRA SCT020 BKN080 15/14 Q1011 BECMG TL1250 9999 NSW
  • 021208Z 15010KT 130V190 8000 -SHRA SCT020 BKN080 16/13 Q1010 NOSIG RMK RWY19 15012KT
  • 021150Z 17013KT 9999 SCT020 BKN090 17/12 Q1011 NOSIG RMK RWY19 15015KT
  • 021120Z 18013KT 9999 SCT020 BKN090 17/12 Q1010 NOSIG RMK RWY19 16014KT
  • 021050Z 17013KT 9999 SCT030 BKN090 18/12 Q1011 NOSIG RMK RWY19 15014KT
  • 021020Z 17011KT 130V200 9999 SCT030 BKN090 18/12 Q1011 NOSIG RMK RWY19 16012KT
  • 020950Z 18009KT 9999 SCT030 BKN090 18/12 Q1011 NOSIG RMK RWY19 17010KT 140V200

TAF TAF LTBS
Valid from the 02 at 12:00 until the 03 at 12:00 UTC


021040Z 0212/0312 20012KT 9999 SCT030 BKN090
TEMPO 0212/0216 -SHRA
TEMPO 0216/0220 -SHRA
BECMG 0216/0218 34009KT



MET'MAP, your aeronautical weather chart ! - Copyright ORBIFLY December 2007 - Disclaimer

ORBIFLY MET'MAP TEAM :

Programming & Development : Alexandra Zaïnal
Concept & original design : Baudouin d'Aumeries
Assistance for programming : Marc-Olivier Méhu
Technical & hardware support : Manuel Goepfert

Contact : metmap@orbifly.com




SOURCES & CREDITS :

   NOAA